KSBA/SBA METAR and TAF weather

Enter ICAO airport designator
Station Type Date Time Source
KSBA METAR 2021/05/10 01:53 UTC NOAA

KSBA 100153Z 26007KT 6SM HZ CLR 15/12 A2985 RMK AO2 SLP107 T01500117 $


Station Type Date Time Source
KSBA Decoded METAR 2021/05/10 01:53 UTC NOAA

SANTA BARBARA MUNICIPAL, CA, United States (KSBA) 34-26N 119-51W 3M
May 09, 2021 - 09:53 PM EDT / 2021.05.10 0153 UTC
Wind: from the W (260 degrees) at 8 MPH (7 KT):0
Visibility: 6 mile(s):0
Sky conditions: clear
Weather: haze
Temperature: 59.0 F (15.0 C)
Dew Point: 53.1 F (11.7 C)
Relative Humidity: 80%
Pressure (altimeter): 29.85 in. Hg (1010 hPa)
ob: KSBA 100153Z 26007KT 6SM HZ CLR 15/12 A2985 RMK AO2 SLP107 T01500117
cycle: 2

Station Type Date Time Source
KSBA TAF 2021/05/09 18:40 UTC NOAA

TAF KSBA 091740Z 0918/1018 14006KT P6SM OVC015
FM091900 17006KT P6SM OVC020
FM092100 24006KT P6SM SKC
FM100400 VRB05KT P6SM SKC
FM100800 09004KT P6SM OVC015
FM101730 17006KT P6SM OVC020

Example: see airport list